Weather at Sion Airport

Public forecast

Using degrees Celsius for public forecast. Weather courtesy of forecast.io.

Current aviation weather report (METAR) for Sion Airport

Retrieved 2020/10/27 11:20 UTC (0 seconds ago):

LSGS 271120Z VRB03KT 9999 FEW020 SCT080 11/03 Q1013

Closest aviation forecast (TAF) to Sion Airport

Closest forecast is Payerne Air Base, 41.1 nm (76.2 km) NNW. Retrieved 2020/10/27 10:00 UTC (1 hour ago):

TAF LSMP 270925Z 2710/2816 22010KT 9999 FEW020 BKN040 PROB30 TEMPO 2801/2807 SHRA